TimePDT,TemperatureF,Dew PointF,Humidity,Sea Level PressureIn,VisibilityMPH,Wind Direction,Wind SpeedMPH,Gust SpeedMPH,PrecipitationIn,Events,Conditions,WindDirDegrees,DateUTC
12:52 AM,53.1,37.0,55,30.14,10.0,West,9.2,-,N/A,,Clear,270,2013-05-31 07:52:00
1:52 AM,51.1,37.9,61,30.15,10.0,West,5.8,-,N/A,,Clear,260,2013-05-31 08:52:00
2:52 AM,48.0,37.0,66,30.16,10.0,Calm,Calm,-,N/A,,Clear,0,2013-05-31 09:52:00
3:52 AM,50.0,37.9,63,30.17,10.0,WSW,3.5,-,N/A,,Clear,240,2013-05-31 10:52:00
4:52 AM,48.0,39.0,71,30.19,10.0,SW,4.6,-,N/A,,Clear,220,2013-05-31 11:52:00
5:52 AM,45.0,39.0,80,30.22,10.0,Calm,Calm,-,N/A,,Clear,0,2013-05-31 12:52:00
6:52 AM,51.1,39.0,63,30.23,10.0,SW,4.6,-,N/A,,Clear,220,2013-05-31 13:52:00
7:52 AM,54.0,39.0,57,30.25,10.0,Calm,Calm,-,N/A,,Clear,0,2013-05-31 14:52:00
8:52 AM,59.0,37.0,44,30.26,10.0,Calm,Calm,-,N/A,,Clear,0,2013-05-31 15:52:00
9:52 AM,61.0,36.0,39,30.27,10.0,Calm,Calm,-,N/A,,Clear,0,2013-05-31 16:52:00
10:52 AM,64.0,36.0,35,30.27,10.0,SW,6.9,-,N/A,,Clear,230,2013-05-31 17:52:00
11:52 AM,66.0,36.0,33,30.26,10.0,Variable,3.5,-,N/A,,Clear,0,2013-05-31 18:52:00
12:52 PM,68.0,36.0,31,30.25,10.0,SSW,9.2,-,N/A,,Clear,210,2013-05-31 19:52:00
1:52 PM,70.0,36.0,29,30.24,10.0,SW,8.1,17.3,N/A,,Clear,220,2013-05-31 20:52:00
2:52 PM,70.0,33.1,26,30.23,10.0,Variable,4.6,16.1,N/A,,Clear,0,2013-05-31 21:52:00
3:52 PM,71.1,30.9,23,30.23,10.0,South,10.4,16.1,N/A,,Clear,170,2013-05-31 22:52:00
4:52 PM,71.1,32.0,24,30.23,10.0,South,8.1,-,N/A,,Clear,190,2013-05-31 23:52:00
5:52 PM,71.1,32.0,24,30.22,10.0,Variable,3.5,-,N/A,,Clear,0,2013-06-01 00:52:00
6:52 PM,70.0,30.9,24,30.21,10.0,SE,3.5,-,N/A,,Clear,130,2013-06-01 01:52:00
7:52 PM,69.1,34.0,27,30.21,10.0,SSE,4.6,-,N/A,,Clear,160,2013-06-01 02:52:00
8:52 PM,64.9,39.9,40,30.20,10.0,ESE,4.6,-,N/A,,Clear,120,2013-06-01 03:52:00
9:52 PM,62.1,41.0,46,30.22,10.0,Calm,Calm,-,N/A,,Clear,0,2013-06-01 04:52:00
10:52 PM,59.0,41.0,51,30.21,10.0,Calm,Calm,-,N/A,,Clear,0,2013-06-01 05:52:00
11:52 PM,55.0,41.0,59,30.21,10.0,Calm,Calm,-,N/A,,Clear,0,2013-06-01 06:52:00